createdAt,value
2018-12-05T00:01:01.212Z,7.27
2018-12-05T00:03:29.201Z,6.77
2018-12-05T00:06:01.481Z,7.43
2018-12-05T00:08:29.012Z,5.87
2018-12-05T00:10:56.559Z,5.97
2018-12-05T00:13:24.046Z,7.70
2018-12-05T00:15:52.021Z,5.37
2018-12-05T00:18:19.961Z,5.97
2018-12-05T00:20:47.404Z,5.50
2018-12-05T00:23:15.006Z,6.03
2018-12-05T00:25:42.472Z,7.27
2018-12-05T00:28:09.905Z,6.40
2018-12-05T00:30:37.378Z,7.07
2018-12-05T00:33:06.107Z,5.73
2018-12-05T00:35:34.127Z,6.57
2018-12-05T00:38:01.571Z,4.97
2018-12-05T00:40:29.259Z,5.40
2018-12-05T00:42:56.731Z,5.30
2018-12-05T00:45:24.231Z,5.73
2018-12-05T00:47:51.943Z,6.33
2018-12-05T00:50:19.777Z,5.17
2018-12-05T00:52:47.220Z,4.90
2018-12-05T00:55:14.736Z,6.50
2018-12-05T00:57:42.441Z,8.13
2018-12-05T01:00:09.932Z,6.07
2018-12-05T01:02:37.373Z,9.67
2018-12-05T01:05:07.854Z,6.40
2018-12-05T01:07:35.514Z,6.40
2018-12-05T01:10:04.560Z,5.87
2018-12-05T01:12:32.021Z,5.83
2018-12-05T01:14:59.493Z,5.20
2018-12-05T01:17:27.011Z,6.63
2018-12-05T01:19:54.661Z,5.87
2018-12-05T01:22:23.841Z,7.90
2018-12-05T01:24:51.337Z,5.80
2018-12-05T01:27:18.857Z,6.63
2018-12-05T01:29:46.587Z,5.60
2018-12-05T01:32:14.284Z,6.30
2018-12-05T01:34:42.911Z,6.03
2018-12-05T01:37:10.761Z,5.10
2018-12-05T01:39:38.225Z,6.57
2018-12-05T01:42:05.701Z,6.20
2018-12-05T01:44:33.152Z,5.30
2018-12-05T01:47:00.581Z,5.47
2018-12-05T01:49:28.473Z,5.60
2018-12-05T01:51:55.930Z,5.23
2018-12-05T01:54:23.381Z,5.03
2018-12-05T01:56:51.137Z,5.40
2018-12-05T01:59:18.663Z,6.47
2018-12-05T02:01:46.137Z,4.83
2018-12-05T02:04:13.935Z,5.20
2018-12-05T02:06:41.376Z,5.13
2018-12-05T02:09:08.896Z,4.10
2018-12-05T02:11:36.410Z,3.83
2018-12-05T02:14:04.323Z,4.87
2018-12-05T02:16:32.136Z,4.57
2018-12-05T02:18:59.747Z,4.10
2018-12-05T02:21:27.741Z,5.23
2018-12-05T02:23:55.475Z,4.53
2018-12-05T02:26:22.905Z,4.10
2018-12-05T02:28:50.465Z,4.00
2018-12-05T02:31:17.941Z,4.00
2018-12-05T02:33:45.523Z,4.40
2018-12-05T02:36:13.621Z,3.50
2018-12-05T02:38:41.057Z,3.30
2018-12-05T02:41:08.501Z,4.10
2018-12-05T02:43:35.973Z,3.23
2018-12-05T02:46:03.421Z,3.50
2018-12-05T02:48:30.888Z,3.13
2018-12-05T02:50:58.636Z,3.27
2018-12-05T02:53:26.525Z,3.50
2018-12-05T02:55:54.219Z,2.80
2018-12-05T02:58:21.723Z,3.33
2018-12-05T03:00:49.206Z,4.70
2018-12-05T03:03:16.721Z,3.80
2018-12-05T03:05:44.776Z,4.67
2018-12-05T03:08:12.515Z,5.17
2018-12-05T03:10:39.949Z,6.13
2018-12-05T03:13:07.390Z,5.77
2018-12-05T03:15:34.862Z,7.37
2018-12-05T03:18:02.304Z,7.10
2018-12-05T03:20:30.071Z,7.53
2018-12-05T03:22:57.670Z,6.13
2018-12-05T03:25:25.389Z,6.97
2018-12-05T03:27:52.989Z,6.10
2018-12-05T03:30:20.434Z,5.67
2018-12-05T03:32:47.918Z,5.63
2018-12-05T03:35:18.661Z,5.47
2018-12-05T03:37:46.375Z,6.60
2018-12-05T03:40:13.849Z,7.13
2018-12-05T03:42:41.383Z,5.87
2018-12-05T03:45:09.028Z,5.50
2018-12-05T03:47:36.469Z,5.30
2018-12-05T03:50:04.459Z,5.30
2018-12-05T03:52:31.936Z,5.63
2018-12-05T03:54:59.416Z,5.73
2018-12-05T03:57:27.190Z,6.60
2018-12-05T03:59:54.622Z,5.20
2018-12-05T04:02:22.071Z,5.37
2018-12-05T04:04:49.543Z,5.27
2018-12-05T04:07:17.469Z,5.50
2018-12-05T04:09:45.207Z,4.93
2018-12-05T04:12:12.812Z,5.83
2018-12-05T04:14:40.277Z,6.60
2018-12-05T04:17:08.109Z,5.03
2018-12-05T04:19:35.981Z,4.63
2018-12-05T04:22:03.891Z,5.30
2018-12-05T04:24:31.321Z,4.20
2018-12-05T04:26:59.389Z,4.43
2018-12-05T04:29:26.832Z,3.80
2018-12-05T04:31:54.711Z,4.80
2018-12-05T04:34:22.531Z,4.47
2018-12-05T04:36:49.995Z,4.10
2018-12-05T04:39:17.732Z,4.50
2018-12-05T04:41:46.157Z,4.47
2018-12-05T04:44:13.623Z,5.40
2018-12-05T04:46:41.074Z,5.03
2018-12-05T04:49:08.755Z,4.50
2018-12-05T04:51:36.198Z,3.87
2018-12-05T04:54:03.712Z,4.10
2018-12-05T04:56:31.595Z,4.43
2018-12-05T04:58:59.144Z,3.90
2018-12-05T05:01:26.570Z,3.60
2018-12-05T05:03:54.609Z,3.60
2018-12-05T05:06:22.045Z,3.47
2018-12-05T05:08:49.738Z,4.40
2018-12-05T05:11:17.255Z,3.60
2018-12-05T05:13:44.688Z,4.40
2018-12-05T05:16:12.410Z,4.20
2018-12-05T05:18:39.986Z,5.23
2018-12-05T05:21:07.544Z,3.67
2018-12-05T05:23:35.166Z,3.67
2018-12-05T05:26:02.607Z,4.10
2018-12-05T05:28:30.080Z,4.00
2018-12-05T05:30:57.785Z,4.73
2018-12-05T05:33:25.527Z,5.30
2018-12-05T05:35:53.211Z,4.70
2018-12-05T05:38:20.636Z,3.80
2018-12-05T05:40:48.064Z,4.60
2018-12-05T05:43:15.785Z,3.73
2018-12-05T05:45:43.232Z,4.13
2018-12-05T05:48:10.715Z,4.30
2018-12-05T05:50:38.476Z,4.47
2018-12-05T05:53:05.927Z,4.83
2018-12-05T05:55:33.671Z,4.90
2018-12-05T05:58:01.119Z,4.83
2018-12-05T06:00:28.589Z,4.40
2018-12-05T06:02:56.041Z,4.97
2018-12-05T06:05:23.548Z,5.30
2018-12-05T06:07:51.210Z,4.53
2018-12-05T06:10:18.709Z,4.87
2018-12-05T06:12:46.173Z,5.70
2018-12-05T06:15:13.833Z,4.83
2018-12-05T06:17:41.395Z,5.77
2018-12-05T06:20:09.868Z,6.07
2018-12-05T06:22:37.482Z,5.80
2018-12-05T06:25:05.410Z,5.47
2018-12-05T06:27:32.864Z,5.70
2018-12-05T06:30:00.333Z,6.57
2018-12-05T06:32:28.130Z,9.20
2018-12-05T06:34:56.065Z,9.80
2018-12-05T06:37:23.547Z,6.67
2018-12-05T06:39:50.982Z,6.80
2018-12-05T06:42:20.118Z,6.10
2018-12-05T06:44:48.026Z,7.60
2018-12-05T06:47:15.453Z,11.90
2018-12-05T06:49:43.628Z,8.23
2018-12-05T06:52:11.058Z,7.10
2018-12-05T06:54:38.845Z,6.73
2018-12-05T06:57:06.311Z,8.00
2018-12-05T06:59:34.439Z,12.17
2018-12-05T07:02:01.973Z,8.30
2018-12-05T07:04:29.648Z,8.50
2018-12-05T07:06:57.085Z,7.37
2018-12-05T07:09:25.323Z,7.50
2018-12-05T07:11:52.847Z,7.73
2018-12-05T07:14:20.380Z,7.77
2018-12-05T07:16:47.952Z,8.10
2018-12-05T07:19:15.677Z,11.33
2018-12-05T07:21:43.371Z,12.10
2018-12-05T07:24:10.805Z,8.87
2018-12-05T07:26:39.417Z,11.37
2018-12-05T07:29:06.921Z,12.33
2018-12-05T07:31:34.380Z,11.13
2018-12-05T07:34:02.373Z,13.83
2018-12-05T07:36:29.846Z,15.30
2018-12-05T07:38:57.274Z,14.57
2018-12-05T07:41:24.946Z,11.87
2018-12-05T07:43:52.444Z,17.33
2018-12-05T07:46:20.213Z,14.00
2018-12-05T07:48:47.691Z,13.77
2018-12-05T07:51:15.431Z,12.50
2018-12-05T07:53:43.201Z,11.87
2018-12-05T07:56:11.438Z,10.87
2018-12-05T07:58:39.054Z,14.03
2018-12-05T08:01:06.513Z,13.23
2018-12-05T08:03:34.472Z,11.47
2018-12-05T08:06:01.962Z,11.77
2018-12-05T08:08:29.597Z,12.63
2018-12-05T08:10:57.048Z,11.40
2018-12-05T08:13:24.493Z,11.40
2018-12-05T08:15:55.526Z,9.67
2018-12-05T08:18:23.288Z,11.07
2018-12-05T08:20:50.723Z,8.83
2018-12-05T08:23:18.352Z,9.43
2018-12-05T08:25:45.824Z,12.13
2018-12-05T08:28:13.387Z,12.40
2018-12-05T08:30:40.857Z,8.27
2018-12-05T08:33:08.571Z,10.27
2018-12-05T08:35:36.412Z,13.13
2018-12-05T08:38:04.092Z,16.37
2018-12-05T08:40:31.744Z,14.27
2018-12-05T08:42:59.219Z,14.33
2018-12-05T08:45:26.727Z,13.50
2018-12-05T08:47:54.458Z,16.00
2018-12-05T08:50:22.348Z,11.90
2018-12-05T08:52:49.781Z,11.50
2018-12-05T08:55:17.261Z,15.03
2018-12-05T08:57:44.785Z,13.00
2018-12-05T09:00:12.335Z,11.70
2018-12-05T09:02:39.801Z,13.63
2018-12-05T09:05:07.833Z,13.53
2018-12-05T09:07:35.698Z,12.93
2018-12-05T09:10:03.624Z,12.07
2018-12-05T09:12:31.098Z,12.13
2018-12-05T09:14:59.236Z,15.37
2018-12-05T09:17:26.681Z,12.53
2018-12-05T09:19:54.439Z,12.13
2018-12-05T09:22:21.870Z,15.20
2018-12-05T09:24:49.320Z,15.70
2018-12-05T09:27:16.773Z,14.80
2018-12-05T09:29:44.610Z,13.90
2018-12-05T09:32:12.578Z,9.70
2018-12-05T09:34:40.381Z,10.23
2018-12-05T09:37:07.861Z,9.97
2018-12-05T09:39:35.328Z,9.43
2018-12-05T09:42:03.362Z,8.47
2018-12-05T09:44:30.781Z,8.57
2018-12-05T09:46:58.283Z,10.83
2018-12-05T09:49:26.320Z,8.87
2018-12-05T09:51:53.753Z,8.40
2018-12-05T09:54:21.204Z,8.53
2018-12-05T09:56:48.661Z,9.07
2018-12-05T09:59:16.095Z,9.60
2018-12-05T10:01:44.038Z,9.03
2018-12-05T10:04:11.805Z,10.07
2018-12-05T10:06:39.298Z,9.83
2018-12-05T10:09:08.003Z,9.60
2018-12-05T10:11:35.468Z,9.10
2018-12-05T10:14:02.957Z,9.63
2018-12-05T10:16:30.480Z,10.20
2018-12-05T10:18:58.321Z,9.97
2018-12-05T10:21:26.354Z,10.20
2018-12-05T10:23:54.175Z,11.53
2018-12-05T10:26:22.655Z,11.47
2018-12-05T10:28:50.759Z,8.47
2018-12-05T10:31:18.265Z,9.40
2018-12-05T10:33:45.964Z,10.23
2018-12-05T10:36:13.892Z,9.37
2018-12-05T10:38:41.381Z,11.13
2018-12-05T10:41:08.833Z,10.17
2018-12-05T10:43:36.336Z,11.47
2018-12-05T10:46:03.821Z,10.03
2018-12-05T10:48:31.266Z,12.47
2018-12-05T10:50:58.853Z,10.47
2018-12-05T10:53:26.301Z,9.93
2018-12-05T10:55:53.752Z,10.00
2018-12-05T10:58:21.224Z,11.27
2018-12-05T11:00:54.261Z,11.67
2018-12-05T11:03:27.555Z,12.13
2018-12-05T11:06:01.606Z,12.10
2018-12-05T11:11:35.533Z,13.60
2018-12-05T11:14:09.147Z,14.10
2018-12-05T11:16:39.415Z,10.80
2018-12-05T11:19:12.873Z,10.37
2018-12-05T11:21:49.683Z,11.47
2018-12-05T11:24:17.319Z,13.57
2018-12-05T11:26:44.807Z,10.87
2018-12-05T11:29:12.250Z,10.80
2018-12-05T11:31:40.345Z,10.80
2018-12-05T11:34:08.309Z,11.87
2018-12-05T11:36:35.773Z,10.40
2018-12-05T11:39:04.933Z,9.43
2018-12-05T11:41:32.738Z,12.30
2018-12-05T11:44:00.435Z,9.47
2018-12-05T11:46:27.897Z,9.00
2018-12-05T11:48:55.865Z,10.93
2018-12-05T11:51:23.307Z,9.17
2018-12-05T11:53:50.786Z,7.93
2018-12-05T11:56:18.537Z,7.47
2018-12-05T11:58:45.973Z,7.27
2018-12-05T12:01:13.717Z,7.00
2018-12-05T12:03:41.537Z,9.63
2018-12-05T12:06:08.979Z,7.23
2018-12-05T12:08:36.920Z,7.07
2018-12-05T12:11:04.617Z,6.63
2018-12-05T12:13:32.124Z,7.00
2018-12-05T12:15:59.667Z,6.87
2018-12-05T12:18:27.415Z,7.30
2018-12-05T12:20:54.888Z,7.20
2018-12-05T12:23:22.317Z,6.83
2018-12-05T12:25:49.829Z,7.20
2018-12-05T12:28:17.311Z,7.10
2018-12-05T12:30:44.749Z,7.27
2018-12-05T12:33:12.463Z,7.13
2018-12-05T12:35:40.383Z,7.07
2018-12-05T12:38:07.830Z,6.33
2018-12-05T12:40:35.273Z,6.00
2018-12-05T12:43:02.852Z,5.97
2018-12-05T12:45:30.376Z,6.40
2018-12-05T12:47:59.227Z,5.70
2018-12-05T12:50:27.186Z,5.33
2018-12-05T12:52:54.660Z,6.60
2018-12-05T12:55:22.095Z,5.93
2018-12-05T12:57:52.833Z,5.90
2018-12-05T13:00:20.329Z,6.10
2018-12-05T13:02:47.765Z,5.77
2018-12-05T13:05:15.802Z,5.53
2018-12-05T13:07:43.832Z,4.97
2018-12-05T13:10:11.253Z,5.40
2018-12-05T13:12:39.353Z,6.30
2018-12-05T13:15:06.969Z,5.10
2018-12-05T13:17:34.405Z,5.53
2018-12-05T13:20:02.259Z,5.37
2018-12-05T13:22:29.738Z,6.20
2018-12-05T13:24:57.267Z,5.83
2018-12-05T13:27:24.716Z,5.80
2018-12-05T13:29:52.202Z,5.33
2018-12-05T13:32:19.873Z,5.20
2018-12-05T13:34:47.814Z,5.83
2018-12-05T13:37:15.296Z,5.30
2018-12-05T13:39:42.969Z,5.37
2018-12-05T13:42:10.487Z,5.50
2018-12-05T13:44:37.984Z,5.70
2018-12-05T13:47:05.487Z,5.17
2018-12-05T13:49:33.386Z,6.00
2018-12-05T13:52:00.905Z,5.60
2018-12-05T13:54:28.333Z,5.17
2018-12-05T13:56:55.844Z,6.20
2018-12-05T13:59:23.282Z,5.47
2018-12-05T14:01:50.768Z,5.00
2018-12-05T14:04:18.533Z,5.47
2018-12-05T14:06:45.978Z,5.40
2018-12-05T14:09:13.573Z,5.40
2018-12-05T14:11:41.098Z,5.77
2018-12-05T14:14:08.680Z,5.60
2018-12-05T14:16:36.253Z,5.23
2018-12-05T14:19:04.093Z,5.10
2018-12-05T14:21:31.586Z,5.43
2018-12-05T14:23:59.065Z,4.80
2018-12-05T14:26:27.728Z,5.10
2018-12-05T14:28:55.215Z,5.20
2018-12-05T14:31:23.020Z,5.60
2018-12-05T14:33:50.662Z,5.23
2018-12-05T14:36:18.334Z,5.00
2018-12-05T14:38:45.789Z,4.77
2018-12-05T14:41:13.278Z,4.60
2018-12-05T14:43:40.774Z,4.60
2018-12-05T14:46:08.263Z,5.00
2018-12-05T14:48:36.863Z,4.90
2018-12-05T14:51:05.094Z,4.70
2018-12-05T14:53:32.568Z,4.27
2018-12-05T14:56:00.010Z,4.30
2018-12-05T14:58:27.783Z,4.20
2018-12-05T15:00:55.622Z,4.20
2018-12-05T15:03:23.106Z,3.53
2018-12-05T15:05:51.056Z,3.60
2018-12-05T15:08:19.017Z,4.07
2018-12-05T15:10:46.554Z,4.50
2018-12-05T15:13:13.987Z,4.00
2018-12-05T15:15:41.444Z,4.10
2018-12-05T15:18:08.894Z,3.77
2018-12-05T15:20:37.177Z,4.73
2018-12-05T15:23:04.695Z,3.97
2018-12-05T15:25:32.142Z,3.80
2018-12-05T15:28:00.033Z,4.10
2018-12-05T15:30:27.504Z,4.50
2018-12-05T15:32:55.262Z,4.00
2018-12-05T15:35:22.842Z,4.10
2018-12-05T15:37:50.285Z,3.80
2018-12-05T15:40:17.719Z,4.17
2018-12-05T15:42:45.492Z,4.40
2018-12-05T15:45:13.047Z,4.53
2018-12-05T15:47:41.057Z,4.43
2018-12-05T15:50:08.950Z,4.60
2018-12-05T15:52:36.385Z,4.03
2018-12-05T15:55:04.468Z,3.97
2018-12-05T15:57:31.890Z,4.67
2018-12-05T15:59:59.342Z,4.90
2018-12-05T16:02:27.143Z,4.43
2018-12-05T16:04:54.820Z,4.10
2018-12-05T16:07:22.437Z,4.43
2018-12-05T16:09:49.945Z,4.33
2018-12-05T16:12:17.713Z,4.73
2018-12-05T16:14:46.518Z,5.40
2018-12-05T16:17:13.942Z,5.97
2018-12-05T16:19:41.666Z,5.80
2018-12-05T16:22:09.090Z,5.13
2018-12-05T16:24:37.123Z,5.13
2018-12-05T16:27:04.598Z,5.13
2018-12-05T16:29:32.120Z,6.00
2018-12-05T16:31:59.615Z,4.90
2018-12-05T16:34:27.469Z,4.90
2018-12-05T16:36:54.913Z,5.60
2018-12-05T16:39:22.347Z,5.47
2018-12-05T16:41:49.887Z,5.47
2018-12-05T16:44:17.549Z,6.03
2018-12-05T16:46:45.016Z,6.07
2018-12-05T16:49:15.108Z,5.83
2018-12-05T16:51:42.556Z,5.20
2018-12-05T16:54:10.661Z,5.40
2018-12-05T16:56:38.292Z,5.13
2018-12-05T16:59:05.758Z,5.37
2018-12-05T17:01:33.405Z,5.43
2018-12-05T17:04:01.609Z,6.20
2018-12-05T17:06:29.087Z,6.40
2018-12-05T17:08:56.849Z,6.87
2018-12-05T17:11:24.328Z,7.07
2018-12-05T17:13:51.786Z,6.33
2018-12-05T17:16:19.327Z,8.03
2018-12-05T17:18:47.235Z,5.60
2018-12-05T17:21:21.867Z,5.23
2018-12-05T17:23:49.330Z,5.23
2018-12-05T17:26:16.813Z,6.43
2018-12-05T17:28:44.319Z,5.57
2018-12-05T17:31:11.841Z,5.63
2018-12-05T17:33:39.524Z,5.50
2018-12-05T17:36:07.159Z,5.13
2018-12-05T17:38:35.281Z,5.80
2018-12-05T17:41:02.874Z,5.77
2018-12-05T17:43:30.417Z,5.47
2018-12-05T17:45:57.912Z,5.53
2018-12-05T17:48:29.273Z,5.63
2018-12-05T17:50:57.090Z,5.67
2018-12-05T17:53:24.715Z,5.23
2018-12-05T17:55:52.285Z,6.00
2018-12-05T17:58:20.078Z,6.53
2018-12-05T18:00:47.513Z,5.97
2018-12-05T18:03:15.006Z,6.37
2018-12-05T18:05:42.909Z,6.70
2018-12-05T18:08:11.225Z,5.70
2018-12-05T18:10:38.673Z,6.03
2018-12-05T18:13:06.309Z,5.80
2018-12-05T18:15:33.758Z,5.50
2018-12-05T18:18:01.440Z,6.20
2018-12-05T18:20:29.137Z,6.07
2018-12-05T18:22:56.593Z,5.90
2018-12-05T18:25:24.107Z,6.37
2018-12-05T18:27:51.554Z,5.70
2018-12-05T18:30:19.159Z,5.70
2018-12-05T18:32:46.774Z,6.40
2018-12-05T18:35:14.593Z,6.27
2018-12-05T18:37:42.200Z,6.63
2018-12-05T18:40:09.804Z,6.00
2018-12-05T18:42:37.863Z,5.73
2018-12-05T18:45:05.984Z,6.20
2018-12-05T18:47:33.463Z,6.33
2018-12-05T18:50:01.355Z,6.07
2018-12-05T18:52:28.890Z,7.77
2018-12-05T18:54:56.336Z,6.30
2018-12-05T18:57:23.829Z,5.43
2018-12-05T18:59:51.509Z,6.30
2018-12-05T19:02:18.986Z,6.00
2018-12-05T19:04:46.649Z,6.37
2018-12-05T19:07:14.503Z,5.40
2018-12-05T19:09:42.075Z,6.63
2018-12-05T19:12:09.505Z,6.30
2018-12-05T19:14:42.647Z,5.53
2018-12-05T19:17:10.101Z,5.60
2018-12-05T19:19:37.989Z,6.97
2018-12-05T19:22:05.483Z,6.70
2018-12-05T19:24:32.950Z,7.37
2018-12-05T19:27:00.401Z,6.43
2018-12-05T19:29:27.891Z,6.03
2018-12-05T19:31:55.855Z,6.20
2018-12-05T19:34:23.534Z,5.83
2018-12-05T19:36:50.987Z,5.57
2018-12-05T19:39:18.484Z,5.67
2018-12-05T19:41:46.003Z,6.33
2018-12-05T19:44:13.482Z,6.27
2018-12-05T19:46:41.025Z,5.80
2018-12-05T19:49:09.036Z,5.53
2018-12-05T19:51:36.589Z,6.17
2018-12-05T19:54:04.354Z,6.17
2018-12-05T19:56:32.103Z,5.57
2018-12-05T19:58:59.586Z,5.47
2018-12-05T20:01:27.017Z,5.60
2018-12-05T20:03:54.911Z,5.83
2018-12-05T20:06:22.355Z,5.17
2018-12-05T20:08:50.353Z,5.80
2018-12-05T20:11:17.797Z,5.37
2018-12-05T20:13:46.234Z,5.57
2018-12-05T20:16:13.894Z,5.17
2018-12-05T20:18:41.856Z,5.30
2018-12-05T20:21:09.333Z,5.60
2018-12-05T20:23:36.921Z,5.70
2018-12-05T20:26:04.367Z,5.37
2018-12-05T20:28:31.867Z,5.27
2018-12-05T20:30:59.322Z,5.33
2018-12-05T20:33:27.125Z,5.60
2018-12-05T20:35:54.915Z,5.13
2018-12-05T20:38:22.361Z,5.40
2018-12-05T20:40:49.837Z,5.57
2018-12-05T20:43:17.292Z,5.37
2018-12-05T20:45:44.733Z,4.67
2018-12-05T20:48:12.520Z,4.57
2018-12-05T20:50:40.219Z,4.80
2018-12-05T20:53:07.651Z,5.33
2018-12-05T20:55:35.089Z,6.23
2018-12-05T20:58:02.606Z,4.80
2018-12-05T21:00:30.161Z,5.00
2018-12-05T21:02:57.643Z,4.77
2018-12-05T21:05:25.534Z,4.77
2018-12-05T21:07:53.536Z,4.70
2018-12-05T21:10:21.017Z,4.57
2018-12-05T21:12:48.801Z,4.37
2018-12-05T21:15:16.412Z,4.50
2018-12-05T21:17:43.845Z,4.27
2018-12-05T21:20:11.583Z,4.53
2018-12-05T21:22:39.144Z,4.30
2018-12-05T21:25:06.779Z,4.27
2018-12-05T21:27:34.242Z,5.00
2018-12-05T21:30:02.830Z,4.70
2018-12-05T21:32:30.897Z,4.30
2018-12-05T21:34:58.520Z,4.10
2018-12-05T21:37:25.973Z,4.50
2018-12-05T21:39:53.444Z,3.93
2018-12-05T21:42:22.641Z,4.30
2018-12-05T21:44:53.307Z,3.83
2018-12-05T21:47:20.986Z,3.83
2018-12-05T21:49:48.846Z,3.87
2018-12-05T21:52:16.292Z,3.77
2018-12-05T21:54:43.767Z,3.80
2018-12-05T21:57:11.257Z,3.90
2018-12-05T21:59:38.709Z,3.97
2018-12-05T22:02:06.473Z,4.57
2018-12-05T22:04:34.262Z,4.07
2018-12-05T22:07:02.028Z,4.00
2018-12-05T22:09:30.338Z,4.17
2018-12-05T22:11:57.833Z,4.03
2018-12-05T22:14:25.394Z,4.23
2018-12-05T22:16:52.862Z,4.00
2018-12-05T22:19:20.837Z,3.70
2018-12-05T22:21:48.325Z,3.67
2018-12-05T22:24:15.787Z,3.50
2018-12-05T22:26:43.238Z,3.90
2018-12-05T22:29:10.742Z,3.90
2018-12-05T22:31:38.211Z,3.80
2018-12-05T22:34:06.049Z,3.67
2018-12-05T22:36:34.037Z,3.83
2018-12-05T22:39:01.458Z,3.47
2018-12-05T22:41:28.931Z,3.13
2018-12-05T22:43:56.434Z,3.50
2018-12-05T22:46:23.864Z,3.17
2018-12-05T22:48:51.717Z,3.20
2018-12-05T22:51:19.435Z,3.27
2018-12-05T22:53:47.204Z,3.10
2018-12-05T22:56:14.753Z,3.03
2018-12-05T22:58:42.193Z,3.00
2018-12-05T23:01:10.050Z,3.20
2018-12-05T23:03:37.937Z,3.30
2018-12-05T23:06:05.525Z,3.20
2018-12-05T23:08:33.553Z,2.77
2018-12-05T23:11:01.002Z,3.00
2018-12-05T23:13:28.971Z,3.13
2018-12-05T23:15:56.421Z,3.00
2018-12-05T23:18:24.250Z,2.80
2018-12-05T23:20:52.127Z,2.73
2018-12-05T23:23:19.601Z,3.00
2018-12-05T23:25:47.062Z,2.67
2018-12-05T23:28:14.789Z,2.80
2018-12-05T23:30:42.342Z,3.20
2018-12-05T23:33:09.976Z,3.10
2018-12-05T23:35:37.870Z,3.10
2018-12-05T23:38:05.648Z,2.93
2018-12-05T23:40:33.562Z,2.83
2018-12-05T23:43:01.427Z,2.60
2018-12-05T23:45:28.926Z,3.10
2018-12-05T23:47:56.425Z,3.00
2018-12-05T23:50:24.250Z,2.80
2018-12-05T23:52:52.309Z,3.07
2018-12-05T23:55:20.964Z,2.83
2018-12-05T23:57:48.698Z,2.80
